Time;durP1;ratioP1;P1;durP2;ratioP2;P2;SDS_P1;SDS_P2;PMS_P1;PMS_P2;Temp;Humidity;BMP_temperature;BMP_pressure;BME280_temperature;BME280_humidity;BME280_pressure;Samples;Min_cycle;Max_cycle;Signal;HPM_P1;HPM_P2
2022/04/16 00:00:11;;;;;;;19.65;15.45;;;;;;;8.57;75.68;102961.28;4994319;28;20061;-74
2022/04/16 00:02:38;;;;;;;18.90;14.90;;;;;;;8.55;75.57;102957.84;5013408;28;20513;-73
2022/04/16 00:05:07;;;;;;;19.50;15.63;;;;;;;8.51;75.68;102950.97;5012918;28;20466;-74
2022/04/16 00:07:33;;;;;;;18.73;15.30;;;;;;;8.51;75.74;102961.47;5011889;28;20022;-74
2022/04/16 00:09:58;;;;;;;16.95;15.13;;;;;;;8.48;75.70;102949.31;4995191;28;20048;-74
2022/04/16 00:12:29;;;;;;;18.05;14.98;;;;;;;8.45;76.09;102952.03;4994360;28;20041;-73
2022/04/16 00:14:55;;;;;;;17.20;15.18;;;;;;;8.42;75.86;102951.28;5012591;28;20021;-73
2022/04/16 00:17:21;;;;;;;20.05;15.13;;;;;;;8.41;75.80;102957.44;5003909;28;20387;-73
2022/04/16 00:19:47;;;;;;;20.08;14.82;;;;;;;8.39;76.15;102959.22;5004441;28;20048;-73
2022/04/16 00:22:13;;;;;;;17.30;14.38;;;;;;;8.39;75.81;102956.59;5012586;28;20030;-73
2022/04/16 00:24:42;;;;;;;18.40;15.38;;;;;;;8.40;76.14;102955.69;4996710;28;20025;-73
2022/04/16 00:27:10;;;;;;;17.67;15.57;;;;;;;8.39;76.25;102964.44;5011429;28;20677;-73
2022/04/16 00:29:36;;;;;;;20.73;16.60;;;;;;;8.33;75.91;102954.13;4986026;28;20022;-73
2022/04/16 00:32:06;;;;;;;18.90;15.82;;;;;;;8.34;76.33;102966.34;5010681;28;20084;-73
2022/04/16 00:34:32;;;;;;;19.00;15.68;;;;;;;8.32;76.08;102963.75;5009118;28;20386;-73
2022/04/16 00:36:59;;;;;;;19.55;16.40;;;;;;;8.27;76.37;102954.31;4992039;28;20537;-73
2022/04/16 00:39:24;;;;;;;19.48;16.27;;;;;;;8.27;76.49;102955.16;5001952;28;20034;-74
2022/04/16 00:41:50;;;;;;;19.00;16.33;;;;;;;8.28;76.48;102962.13;5010496;28;20486;-74
2022/04/16 00:44:15;;;;;;;18.38;16.35;;;;;;;8.26;76.65;102960.47;5011364;28;20046;-74
2022/04/16 00:46:41;;;;;;;19.55;16.15;;;;;;;8.22;76.96;102962.31;5011122;28;20108;-74
2022/04/16 00:49:06;;;;;;;21.88;16.40;;;;;;;8.22;77.30;102964.09;4988732;28;20116;-74
2022/04/16 00:51:36;;;;;;;20.23;16.55;;;;;;;8.17;77.49;102965.09;5002691;28;20057;-74
2022/04/16 00:54:01;;;;;;;19.48;15.88;;;;;;;8.18;77.23;102958.09;4993888;28;20116;-74
2022/04/16 00:56:28;;;;;;;25.15;16.45;;;;;;;8.15;77.68;102960.78;5009522;28;20109;-74
2022/04/16 00:58:53;;;;;;;20.30;17.38;;;;;;;8.13;77.43;102958.22;5010727;28;20046;-74
2022/04/16 01:01:18;;;;;;;22.30;17.77;;;;;;;8.14;77.54;102959.09;5010676;28;20032;-74
2022/04/16 01:03:45;;;;;;;21.55;16.98;;;;;;;8.10;77.65;102957.47;5010668;28;20088;-73
2022/04/16 01:06:15;;;;;;;19.20;17.20;;;;;;;8.07;77.47;102957.53;4993095;28;20034;-73
2022/04/16 01:08:44;;;;;;;20.05;17.85;;;;;;;8.05;77.98;102954.13;5005052;28;20038;-73
2022/04/16 01:11:11;;;;;;;21.92;18.17;;;;;;;8.03;78.32;102972.50;4993503;28;20030;-73
2022/04/16 01:13:37;;;;;;;22.13;17.83;;;;;;;7.99;78.20;102964.75;5011644;28;20045;-73
2022/04/16 01:16:06;;;;;;;23.33;18.63;;;;;;;7.98;78.37;102969.13;5010551;28;20097;-73
2022/04/16 01:18:33;;;;;;;23.42;18.77;;;;;;;7.95;78.44;102965.75;4994467;28;20486;-73
2022/04/16 01:21:02;;;;;;;21.58;18.15;;;;;;;7.88;78.37;102957.22;5011798;28;20049;-73
2022/04/16 01:23:28;;;;;;;21.35;18.58;;;;;;;7.92;78.59;102963.22;5010716;28;20080;-76
2022/04/16 01:25:55;;;;;;;24.98;18.88;;;;;;;7.91;78.72;102972.84;4993980;28;20069;-74
2022/04/16 01:28:21;;;;;;;23.77;19.52;;;;;;;7.87;79.08;102973.84;4993557;28;20072;-73
2022/04/16 01:30:47;;;;;;;23.08;19.92;;;;;;;7.81;79.11;102972.25;5010296;28;20038;-74
2022/04/16 01:33:12;;;;;;;25.52;19.85;;;;;;;7.86;78.99;102977.38;4981139;28;20033;-74
2022/04/16 01:35:38;;;;;;;24.63;19.42;;;;;;;7.84;79.18;102973.94;5001377;28;20028;-73
2022/04/16 01:38:10;;;;;;;25.02;20.02;;;;;;;7.83;79.52;102980.06;5009988;28;20474;-73
2022/04/16 01:40:36;;;;;;;23.90;19.50;;;;;;;7.79;79.40;102975.81;5011393;28;20462;-73
2022/04/16 01:43:02;;;;;;;22.40;20.05;;;;;;;7.76;79.69;102978.53;5011090;28;20316;-73
2022/04/16 01:45:27;;;;;;;26.02;19.73;;;;;;;7.76;79.59;102984.63;5010539;28;20049;-74
2022/04/16 01:47:53;;;;;;;25.10;20.25;;;;;;;7.71;79.80;102989.16;5010827;28;20033;-73
2022/04/16 01:50:19;;;;;;;27.05;20.42;;;;;;;7.72;79.81;102987.38;5011408;28;20014;-74
2022/04/16 01:52:46;;;;;;;25.38;20.00;;;;;;;7.70;79.88;102989.19;5009992;28;20540;-74
2022/04/16 01:55:12;;;;;;;23.08;20.55;;;;;;;7.67;80.26;102991.88;5007648;28;20032;-74
2022/04/16 01:57:38;;;;;;;24.52;20.20;;;;;;;7.68;80.02;102991.00;5010189;28;20101;-74
2022/04/16 02:00:09;;;;;;;23.23;20.70;;;;;;;7.64;80.22;102984.13;5007722;28;20050;-74
2022/04/16 02:02:38;;;;;;;24.20;20.23;;;;;;;7.60;80.56;102992.94;5005884;28;20030;-73
2022/04/16 02:05:10;;;;;;;26.15;20.13;;;;;;;7.61;80.28;102989.44;4991331;28;20061;-74
2022/04/16 02:07:35;;;;;;;23.93;20.60;;;;;;;7.58;80.60;102986.88;4992652;28;20088;-74
2022/04/16 02:10:02;;;;;;;25.65;21.08;;;;;;;7.56;80.63;102994.78;5010710;28;20461;-74
2022/04/16 02:12:28;;;;;;;24.25;20.90;;;;;;;7.54;80.52;102989.59;5005695;28;20113;-74
2022/04/16 02:14:53;;;;;;;26.33;20.77;;;;;;;7.55;80.50;102995.69;5008837;28;20554;-77
2022/04/16 02:17:18;;;;;;;27.55;21.27;;;;;;;7.54;80.63;102993.97;5009003;28;20548;-74
2022/04/16 02:19:44;;;;;;;24.20;20.75;;;;;;;7.50;80.94;102993.19;5009207;28;20026;-74
2022/04/16 02:22:10;;;;;;;27.17;20.95;;;;;;;7.50;81.27;102995.81;5010267;28;20394;-74
2022/04/16 02:24:38;;;;;;;26.88;22.42;;;;;;;7.48;81.36;103002.00;4991384;28;20026;-75
2022/04/16 02:27:17;;;;;;;26.17;21.30;;;;;;;7.44;81.30;102995.97;4990632;28;20025;-76
2022/04/16 02:29:43;;;;;;;26.70;21.65;;;;;;;7.43;81.12;102999.50;5005392;28;20026;-75
2022/04/16 02:32:08;;;;;;;23.25;20.55;;;;;;;7.41;81.18;103003.91;5007822;28;20029;-76
2022/04/16 02:34:35;;;;;;;25.00;21.13;;;;;;;7.39;81.16;102997.84;5009458;28;20037;-75
2022/04/16 02:37:01;;;;;;;28.20;21.25;;;;;;;7.38;81.51;103004.00;5009768;28;20018;-75
2022/04/16 02:39:27;;;;;;;25.70;21.65;;;;;;;7.37;81.46;102997.03;5009755;28;20389;-75
2022/04/16 02:41:55;;;;;;;25.48;21.08;;;;;;;7.32;81.37;102998.91;4991341;28;20034;-73
2022/04/16 02:47:05;;;;;;;26.35;22.08;;;;;;;7.32;82.05;103003.28;5003203;28;20530;-76
2022/04/16 02:49:38;;;;;;;27.02;22.55;;;;;;;7.30;81.72;103008.56;4997869;28;20104;-73
2022/04/16 02:52:04;;;;;;;25.27;21.83;;;;;;;7.23;81.63;102997.41;5005593;28;20536;-74
2022/04/16 02:54:30;;;;;;;27.75;21.83;;;;;;;7.25;81.78;103005.22;4991422;28;20033;-73
2022/04/16 02:56:55;;;;;;;26.50;22.85;;;;;;;7.20;82.17;102997.47;4991718;28;20284;-73
2022/04/16 02:59:21;;;;;;;26.70;22.02;;;;;;;7.20;82.23;103001.81;5004418;28;20038;-74
2022/04/16 03:01:46;;;;;;;28.00;22.67;;;;;;;7.20;82.10;103009.69;5000957;28;20025;-74
2022/04/16 03:04:11;;;;;;;27.40;21.83;;;;;;;7.16;82.33;103008.03;5008824;28;20056;-74
2022/04/16 03:06:37;;;;;;;26.90;22.38;;;;;;;7.17;82.55;103020.22;5006513;28;20034;-74
2022/04/16 03:09:06;;;;;;;29.42;23.23;;;;;;;7.12;82.47;103011.63;5008527;28;20037;-76
2022/04/16 03:11:32;;;;;;;25.23;21.88;;;;;;;7.14;82.49;103015.94;5009320;28;20013;-74
2022/04/16 03:17:31;;;;;;;25.25;21.90;;;;;;;7.10;82.45;103021.28;5008225;28;20100;-74
2022/04/16 03:19:28;;;;;;;25.20;21.85;;;;;;;7.07;82.66;103021.38;4997251;28;20057;-73
2022/04/16 03:21:53;;;;;;;26.65;22.58;;;;;;;7.03;82.84;103028.44;5009382;28;20485;-73
2022/04/16 03:24:18;;;;;;;25.65;21.80;;;;;;;7.02;83.03;103021.47;4991333;28;20026;-76
2022/04/16 03:26:43;;;;;;;27.75;23.45;;;;;;;7.00;82.99;103033.75;5008223;28;20366;-74
2022/04/16 03:29:09;;;;;;;29.27;23.95;;;;;;;7.00;83.21;103027.66;4990267;28;20034;-75
2022/04/16 03:31:37;;;;;;;29.13;23.80;;;;;;;6.97;83.36;103023.34;5009572;28;20021;-73
2022/04/16 03:34:02;;;;;;;29.17;22.98;;;;;;;6.98;83.32;103024.22;5008658;28;20026;-73
2022/04/16 03:36:28;;;;;;;31.42;23.73;;;;;;;6.91;83.19;103019.13;5008719;28;20382;-75
2022/04/16 03:38:53;;;;;;;29.30;23.63;;;;;;;6.93;83.65;103020.84;5009015;28;20040;-76
2022/04/16 03:41:19;;;;;;;32.28;23.75;;;;;;;6.90;83.40;103022.63;4987288;28;20041;-75
2022/04/16 03:43:44;;;;;;;32.88;24.55;;;;;;;6.88;83.67;103020.97;5008156;28;20028;-75
2022/04/16 03:46:10;;;;;;;31.45;24.40;;;;;;;6.88;83.56;103019.19;5005327;28;20038;-75
2022/04/16 03:48:35;;;;;;;30.00;24.02;;;;;;;6.85;83.87;103013.19;5007433;28;20397;-75
2022/04/16 03:51:00;;;;;;;27.00;23.35;;;;;;;6.85;83.81;103019.28;5009183;28;20021;-75
2022/04/16 03:53:25;;;;;;;29.48;23.75;;;;;;;6.79;83.73;103016.78;5009482;28;20026;-75
2022/04/16 04:01:19;;;;;;;31.02;24.60;;;;;;;6.76;83.73;103031.69;5002820;28;20032;-75
2022/04/16 04:03:46;;;;;;;32.30;24.52;;;;;;;6.72;84.34;103025.66;5003037;28;20498;-75
2022/04/16 04:06:12;;;;;;;29.83;23.02;;;;;;;6.69;84.28;103030.97;5006328;28;20041;-75
2022/04/16 04:08:37;;;;;;;31.27;24.67;;;;;;;6.67;83.81;103024.91;5007302;28;20397;-75
2022/04/16 04:11:06;;;;;;;30.95;25.40;;;;;;;6.64;84.38;103022.38;5008971;28;20493;-75
2022/04/16 04:13:32;;;;;;;32.67;25.45;;;;;;;6.63;85.05;103028.50;5001553;28;20030;-75
2022/04/16 04:15:59;;;;;;;30.13;24.95;;;;;;;6.62;84.54;103032.00;4992991;28;20072;-79
2022/04/16 04:18:26;;;;;;;31.52;25.73;;;;;;;6.59;84.58;103021.63;4988737;28;20034;-75
2022/04/16 04:20:52;;;;;;;30.50;24.98;;;;;;;6.60;84.73;103039.03;4989213;28;20057;-75
2022/04/16 04:23:19;;;;;;;31.98;25.60;;;;;;;6.59;84.57;103037.31;4989093;28;20073;-75
2022/04/16 04:25:44;;;;;;;32.80;25.15;;;;;;;6.58;84.78;103032.97;4989686;28;20038;-75
2022/04/16 04:28:11;;;;;;;34.33;25.92;;;;;;;6.52;84.81;103043.56;4989127;28;20070;-73
2022/04/16 04:30:37;;;;;;;31.30;25.88;;;;;;;6.49;84.79;103041.03;4993801;28;20037;-74
2022/04/16 04:33:02;;;;;;;30.63;26.05;;;;;;;6.51;85.09;103049.69;4993008;28;20029;-73
2022/04/16 04:35:29;;;;;;;34.42;26.77;;;;;;;6.45;85.62;103048.09;5012655;28;20148;-73
2022/04/16 04:37:54;;;;;;;34.85;27.02;;;;;;;6.45;85.31;103055.94;5012407;28;20068;-73
2022/04/16 04:40:20;;;;;;;35.45;27.00;;;;;;;6.46;85.27;103051.56;4993578;28;20057;-73
2022/04/16 04:42:46;;;;;;;32.25;26.52;;;;;;;6.45;85.56;103055.06;4992848;28;20542;-74
2022/04/16 04:45:14;;;;;;;37.22;27.38;;;;;;;6.44;85.68;103061.19;4999962;28;20072;-74
2022/04/16 04:47:40;;;;;;;35.28;26.95;;;;;;;6.42;85.71;103070.81;5010470;28;20028;-74
2022/04/16 04:50:07;;;;;;;32.80;26.98;;;;;;;6.39;86.02;103061.25;5012191;28;20022;-74
2022/04/16 04:52:36;;;;;;;33.65;27.40;;;;;;;6.39;85.33;103066.50;5012432;28;20025;-74
2022/04/16 04:55:02;;;;;;;37.58;27.27;;;;;;;6.39;85.86;103070.84;5002671;28;20113;-74
2022/04/16 04:57:28;;;;;;;33.83;27.52;;;;;;;6.29;85.43;103057.97;5008360;28;20041;-74
2022/04/16 04:59:54;;;;;;;34.65;27.77;;;;;;;6.35;86.14;103067.44;5011161;28;20049;-74
2022/04/16 05:02:20;;;;;;;34.90;27.40;;;;;;;6.34;86.14;103072.72;5010766;28;20080;-74
2022/04/16 05:04:46;;;;;;;38.92;28.33;;;;;;;6.31;86.45;103072.78;5009089;28;20028;-74
2022/04/16 05:07:12;;;;;;;36.75;29.05;;;;;;;6.31;86.39;103078.88;5011125;28;20022;-74
2022/04/16 05:09:38;;;;;;;36.33;28.30;;;;;;;6.25;86.76;103072.00;5010329;28;20032;-74
2022/04/16 05:12:05;;;;;;;36.33;28.75;;;;;;;6.20;86.79;103065.16;4993541;28;20399;-74
2022/04/16 05:14:31;;;;;;;33.88;28.30;;;;;;;6.28;86.90;103089.38;5011823;28;20441;-74
2022/04/16 05:16:58;;;;;;;33.80;28.15;;;;;;;6.26;87.17;103081.56;5010637;28;20029;-74
2022/04/16 05:19:23;;;;;;;40.70;29.40;;;;;;;6.25;86.95;103077.25;4993202;28;20065;-74
2022/04/16 05:21:52;;;;;;;37.08;29.30;;;;;;;6.27;87.19;103082.44;4992511;28;20623;-77
2022/04/16 05:24:18;;;;;;;34.78;29.52;;;;;;;6.27;87.02;103085.91;4992649;28;20141;-74
2022/04/16 05:26:46;;;;;;;39.03;30.77;;;;;;;6.27;87.37;103095.50;5009638;28;20117;-74
2022/04/16 05:29:12;;;;;;;40.05;30.48;;;;;;;6.22;87.34;103086.91;5010049;28;20504;-74
2022/04/16 05:31:37;;;;;;;39.60;30.92;;;;;;;6.22;87.15;103094.75;4992861;28;20030;-75
2022/04/16 05:34:22;;;;;;;37.15;29.90;;;;;;;6.28;87.56;103098.09;5010889;28;20410;-75
2022/04/16 05:36:49;;;;;;;38.60;29.90;;;;;;;6.29;88.11;103102.41;5010344;28;20022;-75
2022/04/16 05:39:18;;;;;;;41.95;31.33;;;;;;;6.28;87.93;103094.59;5011292;28;20363;-75
2022/04/16 05:41:44;;;;;;;39.78;31.85;;;;;;;6.28;88.08;103092.84;5011077;28;20030;-78
2022/04/16 05:44:13;;;;;;;42.63;31.25;;;;;;;6.27;87.75;103090.28;5010814;28;20026;-75
2022/04/16 05:46:42;;;;;;;39.80;31.65;;;;;;;6.36;88.46;103097.94;5011398;28;20500;-75
2022/04/16 05:49:08;;;;;;;42.90;32.05;;;;;;;6.38;88.23;103092.66;5011518;28;20029;-75
2022/04/16 05:51:35;;;;;;;39.15;31.02;;;;;;;6.41;88.37;103105.72;5008821;28;20025;-75
2022/04/16 05:54:02;;;;;;;38.67;32.33;;;;;;;6.44;88.64;103105.66;5000730;28;20034;-75
2022/04/16 05:56:29;;;;;;;40.97;32.05;;;;;;;6.47;88.26;103106.44;5011617;28;20021;-75
2022/04/16 05:58:54;;;;;;;40.63;32.33;;;;;;;6.48;88.73;103107.31;4988989;28;20057;-75
2022/04/16 06:01:20;;;;;;;39.53;31.20;;;;;;;6.50;88.34;103108.13;4989056;28;20076;-75
2022/04/16 06:03:45;;;;;;;40.35;31.90;;;;;;;6.58;89.07;103122.75;4991310;28;20031;-75
2022/04/16 06:06:10;;;;;;;43.05;33.33;;;;;;;6.62;88.82;103123.56;4987205;28;20033;-74
2022/04/16 06:08:36;;;;;;;43.88;33.40;;;;;;;6.66;88.69;103127.81;4937382;28;20030;-73
2022/04/16 06:11:04;;;;;;;43.33;32.65;;;;;;;6.70;88.37;103133.84;4970820;28;20109;-73
2022/04/16 06:13:30;;;;;;;44.08;33.83;;;;;;;6.74;88.36;103133.75;4960811;28;20033;-74
2022/04/16 06:15:56;;;;;;;46.22;34.67;;;;;;;6.76;88.85;103136.34;4989180;28;20034;-75
2022/04/16 06:18:21;;;;;;;43.45;33.53;;;;;;;6.81;88.50;103142.34;4989544;28;20049;-74
2022/04/16 06:20:53;;;;;;;42.88;33.80;;;;;;;6.84;88.89;103132.69;4990009;28;20038;-74
2022/04/16 06:23:22;;;;;;;45.70;34.85;;;;;;;6.90;88.64;103144.78;4988583;28;20157;-74
2022/04/16 06:25:48;;;;;;;47.15;35.35;;;;;;;6.94;88.89;103143.81;4989295;28;20037;-74
2022/04/16 06:28:13;;;;;;;45.80;34.95;;;;;;;6.98;88.79;103144.59;4989368;28;20034;-74
2022/04/16 06:30:39;;;;;;;44.17;34.83;;;;;;;7.05;88.86;103141.81;4989864;28;20097;-76
2022/04/16 06:33:05;;;;;;;44.03;34.92;;;;;;;7.09;88.86;103138.22;4983338;28;20493;-77
2022/04/16 06:35:31;;;;;;;44.95;35.20;;;;;;;7.11;89.04;103132.94;4989088;28;20442;-74
2022/04/16 06:37:56;;;;;;;48.03;35.25;;;;;;;7.20;88.38;103138.84;4989371;28;20018;-73
2022/04/16 06:40:22;;;;;;;44.10;34.55;;;;;;;7.29;88.35;103139.53;4988708;28;20034;-74
2022/04/16 06:42:48;;;;;;;46.25;36.25;;;;;;;7.36;88.47;103141.97;4989707;28;20026;-74
2022/04/16 06:45:17;;;;;;;45.00;35.50;;;;;;;7.43;88.14;103148.78;4989915;28;20022;-74
2022/04/16 06:47:42;;;;;;;46.53;36.65;;;;;;;7.46;88.51;103139.97;4990880;28;20130;-74
2022/04/16 06:50:08;;;;;;;48.17;36.22;;;;;;;7.55;88.60;103140.63;4989073;28;20367;-74
2022/04/16 06:52:34;;;;;;;47.70;36.30;;;;;;;7.62;88.63;103137.88;4990156;28;20048;-74
2022/04/16 06:54:59;;;;;;;50.45;36.35;;;;;;;7.76;88.49;103146.25;4988611;28;20407;-74
2022/04/16 06:57:26;;;;;;;48.63;37.47;;;;;;;7.82;88.65;103146.06;4989983;28;20018;-74
2022/04/16 06:59:52;;;;;;;52.20;36.75;;;;;;;7.89;88.29;103138.91;5003330;28;20085;-74
2022/04/16 07:02:17;;;;;;;47.38;35.33;;;;;;;7.92;88.28;103131.81;4991143;28;20030;-74
2022/04/16 07:04:43;;;;;;;49.17;36.10;;;;;;;8.10;87.96;103149.72;5008534;28;20049;-74
2022/04/16 07:07:08;;;;;;;48.70;35.67;;;;;;;8.19;87.49;103148.59;5009346;28;20040;-74
2022/04/16 07:09:41;;;;;;;47.53;35.40;;;;;;;8.26;87.15;103150.16;5008861;28;20030;-74
2022/04/16 07:12:10;;;;;;;44.85;34.55;;;;;;;8.37;87.07;103155.13;5008708;28;20026;-74
2022/04/16 07:14:38;;;;;;;46.67;34.53;;;;;;;8.43;86.46;103144.50;5008206;28;20046;-74
2022/04/16 07:17:06;;;;;;;49.80;35.72;;;;;;;8.56;86.77;103156.34;5008179;28;20550;-74
2022/04/16 07:19:32;;;;;;;45.42;34.42;;;;;;;8.69;86.21;103152.44;5008806;28;20036;-74
2022/04/16 07:22:06;;;;;;;44.80;32.97;;;;;;;8.78;85.64;103157.44;4985697;28;20417;-74
2022/04/16 07:24:31;;;;;;;42.58;32.10;;;;;;;8.89;84.79;103153.66;4987402;28;20465;-74
2022/04/16 07:26:57;;;;;;;42.95;31.30;;;;;;;8.96;84.38;103144.69;4983033;28;20045;-74
2022/04/16 07:29:24;;;;;;;42.45;31.60;;;;;;;9.07;84.15;103147.81;5008238;28;20028;-73
2022/04/16 07:31:51;;;;;;;42.70;31.63;;;;;;;9.16;83.70;103150.16;5006300;28;20025;-72
2022/04/16 07:34:17;;;;;;;37.55;30.20;;;;;;;9.26;82.88;103148.13;5007667;28;20030;-72
2022/04/16 07:36:43;;;;;;;39.78;30.48;;;;;;;9.32;82.62;103153.19;5007734;28;20089;-72
2022/04/16 07:39:09;;;;;;;39.55;29.45;;;;;;;9.48;82.40;103157.03;4989070;28;20034;-72
2022/04/16 07:41:35;;;;;;;36.25;29.95;;;;;;;9.59;82.43;103157.53;5008238;28;20052;-72
2022/04/16 07:44:03;;;;;;;38.83;29.70;;;;;;;9.68;81.48;103156.41;5007877;28;20545;-73
2022/04/16 07:46:33;;;;;;;38.03;29.25;;;;;;;9.74;80.83;103150.94;4993264;28;20038;-73
2022/04/16 07:48:58;;;;;;;37.72;29.40;;;;;;;9.86;80.24;103150.50;5009016;28;20501;-73
2022/04/16 07:51:24;;;;;;;35.55;27.70;;;;;;;10.02;79.86;103162.25;5008045;28;20030;-73
2022/04/16 07:53:50;;;;;;;38.63;28.80;;;;;;;10.11;79.19;103160.19;5008656;28;20060;-72
2022/04/16 07:56:15;;;;;;;37.08;27.80;;;;;;;10.19;78.60;103158.16;5008276;28;20053;-71
2022/04/16 07:58:40;;;;;;;35.13;27.20;;;;;;;10.28;78.88;103152.59;5006274;28;20588;-71
2022/04/16 08:01:06;;;;;;;35.53;27.35;;;;;;;10.39;78.51;103160.94;5008048;28;20029;-71
2022/04/16 08:03:32;;;;;;;34.10;26.58;;;;;;;10.49;77.99;103154.47;5008599;28;20057;-71
2022/04/16 08:05:59;;;;;;;32.60;26.90;;;;;;;10.58;77.39;103154.13;5008898;28;20317;-72
2022/04/16 08:08:24;;;;;;;34.45;27.85;;;;;;;10.71;77.70;103154.50;5011488;28;20025;-73
2022/04/16 08:10:53;;;;;;;36.55;26.30;;;;;;;10.79;76.35;103155.06;5011580;28;20041;-73
2022/04/16 08:13:20;;;;;;;35.50;26.98;;;;;;;10.89;76.58;103150.34;5012306;28;20034;-73
2022/04/16 08:15:46;;;;;;;35.15;25.77;;;;;;;11.07;76.08;103152.25;5007573;28;20599;-73
2022/04/16 08:18:18;;;;;;;30.48;24.30;;;;;;;11.16;75.17;103154.50;5011097;28;20103;-73
2022/04/16 08:20:44;;;;;;;32.97;25.17;;;;;;;11.23;74.39;103150.75;5012968;28;20025;-73
2022/04/16 08:23:11;;;;;;;32.28;25.38;;;;;;;11.40;74.75;103147.41;5008180;28;20145;-73
2022/04/16 08:28:04;;;;;;;31.83;23.45;;;;;;;11.58;72.73;103164.25;5011743;28;20041;-73
2022/04/16 08:30:30;;;;;;;28.83;22.67;;;;;;;11.63;71.58;103159.66;4996510;28;20371;-73
2022/04/16 08:33:00;;;;;;;29.75;22.52;;;;;;;11.78;72.03;103163.47;5011108;28;20389;-73
2022/04/16 08:35:25;;;;;;;27.45;21.15;;;;;;;11.85;70.99;103168.41;4995121;28;20367;-73
2022/04/16 08:37:52;;;;;;;26.88;22.33;;;;;;;11.97;70.91;103176.72;4993515;28;20033;-74
2022/04/16 08:40:18;;;;;;;24.98;21.35;;;;;;;12.08;71.21;103161.31;5010618;28;20034;-74
2022/04/16 08:42:46;;;;;;;26.27;20.95;;;;;;;12.19;70.48;103161.72;4993637;28;20041;-75
2022/04/16 08:45:13;;;;;;;24.50;20.27;;;;;;;12.31;69.55;103170.84;5011539;28;20040;-75
2022/04/16 08:47:39;;;;;;;24.95;20.67;;;;;;;12.43;68.53;103173.84;4992849;28;20461;-75
2022/04/16 08:50:07;;;;;;;21.85;19.20;;;;;;;12.52;68.41;103168.13;5010998;28;20108;-75
2022/04/16 08:52:35;;;;;;;23.75;19.40;;;;;;;12.63;68.83;103169.44;5012003;28;20036;-73
2022/04/16 08:55:03;;;;;;;25.58;20.85;;;;;;;12.73;67.97;103165.44;5010858;28;20084;-75
2022/04/16 08:57:29;;;;;;;26.23;19.77;;;;;;;12.84;67.45;103165.81;5012033;28;20021;-75
2022/04/16 08:59:55;;;;;;;22.27;19.02;;;;;;;12.97;66.96;103159.03;5010789;28;20042;-75
2022/04/16 09:02:23;;;;;;;23.10;18.17;;;;;;;13.09;66.62;103158.44;5009631;28;20030;-75
2022/04/16 09:05:00;;;;;;;20.02;17.20;;;;;;;13.17;65.55;103155.44;5011332;28;20030;-73
2022/04/16 09:07:25;;;;;;;22.33;17.13;;;;;;;13.28;65.08;103152.31;4992792;28;20022;-74
2022/04/16 09:09:51;;;;;;;20.85;15.75;;;;;;;13.36;64.01;103152.78;5010558;28;20029;-74
2022/04/16 09:12:18;;;;;;;20.08;16.42;;;;;;;13.53;65.38;103151.94;4994070;28;20080;-73
2022/04/16 09:14:45;;;;;;;20.75;17.40;;;;;;;13.60;64.59;103158.66;5010675;28;20440;-73
2022/04/16 09:17:17;;;;;;;20.17;15.32;;;;;;;13.73;63.65;103155.34;5010500;28;20390;-73
2022/04/16 09:19:51;;;;;;;21.63;17.83;;;;;;;13.77;63.32;103151.59;4993501;28;20040;-73
2022/04/16 09:22:37;;;;;;;23.67;17.48;;;;;;;13.89;64.21;103150.09;4991352;28;20022;-73
2022/04/16 09:25:14;;;;;;;19.73;17.05;;;;;;;14.07;63.68;103141.25;4992365;28;20032;-74
2022/04/16 09:27:50;;;;;;;18.48;14.90;;;;;;;14.11;62.31;103152.53;4992776;28;20041;-73
2022/04/16 09:30:28;;;;;;;20.20;15.65;;;;;;;14.07;62.43;103143.88;5009942;28;20342;-73
2022/04/16 09:32:58;;;;;;;18.48;15.43;;;;;;;14.16;60.92;103147.84;5008278;28;20040;-73
2022/04/16 09:35:33;;;;;;;18.13;14.13;;;;;;;14.15;60.46;103145.28;5009872;28;20598;-74
2022/04/16 09:38:00;;;;;;;16.60;13.55;;;;;;;14.08;58.82;103144.75;4994911;28;20027;-73
2022/04/16 09:40:31;;;;;;;16.85;13.65;;;;;;;14.13;59.54;103148.00;4990844;28;20026;-74
2022/04/16 09:42:59;;;;;;;15.70;13.55;;;;;;;14.05;58.81;103144.91;5009158;28;20033;-73
2022/04/16 09:45:25;;;;;;;15.00;13.27;;;;;;;14.10;58.92;103138.44;4992611;28;20033;-73
2022/04/16 09:47:52;;;;;;;16.30;13.65;;;;;;;14.01;59.18;103127.47;5009599;28;20108;-72
2022/04/16 09:50:19;;;;;;;12.80;10.65;;;;;;;13.91;56.86;103120.91;4993664;28;20354;-75
2022/04/16 09:52:58;;;;;;;16.80;12.32;;;;;;;14.03;57.66;103136.19;5009829;28;20125;-75
2022/04/16 09:55:26;;;;;;;16.27;11.43;;;;;;;14.13;58.50;103134.75;5011318;28;20026;-75
2022/04/16 09:58:04;;;;;;;11.32;7.90;;;;;;;14.26;56.81;103133.16;4992743;28;20018;-74
2022/04/16 10:00:37;;;;;;;10.40;8.40;;;;;;;14.46;55.69;103133.94;5008663;28;20044;-74
2022/04/16 10:03:06;;;;;;;10.60;7.07;;;;;;;14.59;54.92;103133.19;4992435;28;20486;-74
2022/04/16 10:05:32;;;;;;;9.93;7.90;;;;;;;14.72;53.55;103122.78;5011613;28;20037;-74
2022/04/16 10:07:59;;;;;;;9.10;7.93;;;;;;;14.80;52.45;103125.84;5010416;28;20034;-74
2022/04/16 10:10:41;;;;;;;11.75;8.68;;;;;;;14.88;53.67;103121.00;4994491;28;20041;-74
2022/04/16 10:13:10;;;;;;;9.25;7.28;;;;;;;15.01;53.84;103124.66;5010433;28;20021;-73
2022/04/16 10:15:51;;;;;;;10.13;8.35;;;;;;;15.02;52.73;103113.13;5010893;28;20497;-78
2022/04/16 10:18:17;;;;;;;9.13;6.97;;;;;;;15.22;53.28;103114.66;5005933;28;20085;-75
2022/04/16 10:20:59;;;;;;;8.32;7.38;;;;;;;15.34;53.79;103121.03;4998128;28;20084;-75
2022/04/16 10:23:25;;;;;;;11.25;9.20;;;;;;;15.43;53.18;103114.34;5009704;28;20025;-75
2022/04/16 10:25:50;;;;;;;8.23;7.40;;;;;;;15.53;52.35;103119.00;5009764;28;20033;-75
2022/04/16 10:28:23;;;;;;;8.38;7.30;;;;;;;15.60;52.30;103119.53;5009735;28;20018;-75
2022/04/16 10:30:53;;;;;;;;;;;;;;;15.65;55.37;103118.34;5006401;28;20382;-75
2022/04/16 10:33:32;;;;;;;14.20;9.93;;;;;;;15.63;52.09;103130.00;5008147;28;19913;-75
2022/04/16 10:35:59;;;;;;;9.07;7.22;;;;;;;15.68;50.89;103121.75;5008333;28;20032;-74
2022/04/16 10:38:37;;;;;;;5.97;4.60;;;;;;;15.72;50.55;103121.50;5008821;28;20034;-74
2022/04/16 10:41:10;;;;;;;6.55;5.75;;;;;;;15.79;49.45;103124.63;5009207;28;20028;-75
2022/04/16 10:43:35;;;;;;;6.82;6.10;;;;;;;15.79;48.98;103119.31;5010076;28;20412;-74
2022/04/16 10:46:02;;;;;;;8.07;6.30;;;;;;;15.88;49.70;103118.75;5008736;28;20030;-75
2022/04/16 10:48:35;;;;;;;7.15;5.88;;;;;;;15.84;48.28;103118.09;5008913;28;20040;-75
2022/04/16 10:51:01;;;;;;;5.97;5.32;;;;;;;15.88;48.35;103121.41;5008995;28;20033;-75
2022/04/16 10:53:38;;;;;;;6.93;5.82;;;;;;;15.84;47.51;103114.59;5007670;28;20036;-75
2022/04/16 10:56:17;;;;;;;4.60;4.00;;;;;;;15.81;48.04;103117.44;5007708;28;20103;-75
2022/04/16 10:58:45;;;;;;;6.72;4.63;;;;;;;15.86;47.45;103118.00;5007919;28;20072;-75
2022/04/16 11:01:14;;;;;;;6.30;4.93;;;;;;;15.87;46.71;103120.56;5008315;28;20022;-75
2022/04/16 11:03:48;;;;;;;6.30;4.55;;;;;;;15.95;47.43;103114.78;5009271;28;20030;-74
2022/04/16 11:06:14;;;;;;;6.97;5.40;;;;;;;16.09;47.30;103117.47;5009434;28;20080;-75
2022/04/16 11:08:41;;;;;;;5.90;5.03;;;;;;;16.16;47.12;103118.81;5006666;28;20096;-75
2022/04/16 11:11:10;;;;;;;5.88;5.28;;;;;;;16.13;46.10;103113.69;5007750;28;20486;-75
2022/04/16 11:13:38;;;;;;;6.45;4.88;;;;;;;16.22;46.43;103112.25;5008631;28;20505;-74
2022/04/16 11:16:07;;;;;;;6.30;5.32;;;;;;;16.40;46.74;103115.56;4991612;28;20049;-78
2022/04/16 11:18:44;;;;;;;6.13;5.53;;;;;;;16.48;47.21;103106.19;5009783;28;20371;-74
2022/04/16 11:21:12;;;;;;;7.47;5.60;;;;;;;16.55;45.61;103104.00;5008822;28;20025;-75
2022/04/16 11:23:45;;;;;;;6.18;5.57;;;;;;;16.53;44.70;103109.41;5008620;28;20112;-75
2022/04/16 11:34:26;;;;;;;6.43;5.72;;;;;;;17.11;45.14;103102.16;5009462;28;20096;-74
2022/04/16 11:36:52;;;;;;;6.55;5.80;;;;;;;17.18;44.94;103100.81;5009156;28;20022;-74
2022/04/16 11:39:22;;;;;;;6.25;5.63;;;;;;;17.27;44.18;103097.56;5009574;28;20457;-73